sensor_id;sensor_type;location;lat;lon;timestamp;pressure;altitude;pressure_sealevel;temperature;humidity
80393;BME280;69719;45.544;10.218;2023-11-19T00:02:10;100594.81;;;8.94;100.00
80393;BME280;69719;45.544;10.218;2023-11-19T00:04:39;100584.53;;;9.07;100.00
80393;BME280;69719;45.544;10.218;2023-11-19T00:07:05;100593.69;;;9.03;100.00
80393;BME280;69719;45.544;10.218;2023-11-19T00:09:32;100602.91;;;9.05;100.00
80393;BME280;69719;45.544;10.218;2023-11-19T00:11:58;100597.63;;;9.20;100.00
80393;BME280;69719;45.544;10.218;2023-11-19T00:14:26;100593.13;;;9.35;100.00
80393;BME280;69719;45.544;10.218;2023-11-19T00:16:52;100591.56;;;9.34;100.00
80393;BME280;69719;45.544;10.218;2023-11-19T00:19:19;100587.94;;;9.35;100.00
80393;BME280;69719;45.544;10.218;2023-11-19T00:21:44;100582.03;;;9.20;100.00
80393;BME280;69719;45.544;10.218;2023-11-19T00:24:11;100587.00;;;9.15;100.00
80393;BME280;69719;45.544;10.218;2023-11-19T00:26:40;100587.56;;;9.10;100.00
80393;BME280;69719;45.544;10.218;2023-11-19T00:29:07;100591.22;;;8.95;100.00
80393;BME280;69719;45.544;10.218;2023-11-19T00:31:32;100586.34;;;9.06;100.00
80393;BME280;69719;45.544;10.218;2023-11-19T00:33:58;100573.84;;;9.16;100.00
80393;BME280;69719;45.544;10.218;2023-11-19T00:36:23;100569.81;;;9.14;100.00
80393;BME280;69719;45.544;10.218;2023-11-19T00:38:49;100576.63;;;9.15;100.00
80393;BME280;69719;45.544;10.218;2023-11-19T00:41:15;100566.34;;;9.28;100.00
80393;BME280;69719;45.544;10.218;2023-11-19T00:43:42;100565.09;;;9.24;100.00
80393;BME280;69719;45.544;10.218;2023-11-19T00:46:07;100552.88;;;9.18;100.00
80393;BME280;69719;45.544;10.218;2023-11-19T00:48:33;100546.00;;;9.31;100.00
80393;BME280;69719;45.544;10.218;2023-11-19T00:50:59;100552.16;;;9.30;100.00
80393;BME280;69719;45.544;10.218;2023-11-19T00:53:24;100557.03;;;9.12;100.00
80393;BME280;69719;45.544;10.218;2023-11-19T00:55:50;100562.50;;;9.24;100.00
80393;BME280;69719;45.544;10.218;2023-11-19T00:58:15;100563.09;;;9.19;100.00
80393;BME280;69719;45.544;10.218;2023-11-19T01:00:42;100565.50;;;9.21;100.00
80393;BME280;69719;45.544;10.218;2023-11-19T01:03:08;100565.09;;;9.24;100.00
80393;BME280;69719;45.544;10.218;2023-11-19T01:05:33;100556.22;;;9.12;100.00
80393;BME280;69719;45.544;10.218;2023-11-19T01:07:59;100565.84;;;9.18;100.00
80393;BME280;69719;45.544;10.218;2023-11-19T01:10:24;100562.22;;;9.12;100.00
80393;BME280;69719;45.544;10.218;2023-11-19T01:12:51;100562.44;;;9.11;100.00
80393;BME280;69719;45.544;10.218;2023-11-19T01:15:17;100553.53;;;9.26;100.00
80393;BME280;69719;45.544;10.218;2023-11-19T01:17:44;100550.81;;;9.41;100.00
80393;BME280;69719;45.544;10.218;2023-11-19T01:20:10;100553.72;;;9.25;100.00
80393;BME280;69719;45.544;10.218;2023-11-19T01:22:38;100552.97;;;9.31;100.00
80393;BME280;69719;45.544;10.218;2023-11-19T01:25:05;100548.03;;;9.36;100.00
80393;BME280;69719;45.544;10.218;2023-11-19T01:27:30;100549.44;;;9.11;100.00
80393;BME280;69719;45.544;10.218;2023-11-19T01:29:56;100562.44;;;9.11;100.00
80393;BME280;69719;45.544;10.218;2023-11-19T01:32:22;100561.00;;;9.08;100.00
80393;BME280;69719;45.544;10.218;2023-11-19T01:34:49;100554.63;;;9.11;100.00
80393;BME280;69719;45.544;10.218;2023-11-19T01:37:15;100553.97;;;9.30;100.00
80393;BME280;69719;45.544;10.218;2023-11-19T01:39:43;100548.44;;;9.40;100.00
80393;BME280;69719;45.544;10.218;2023-11-19T01:42:09;100542.38;;;9.32;100.00
80393;BME280;69719;45.544;10.218;2023-11-19T01:44:34;100534.53;;;9.26;100.00
80393;BME280;69719;45.544;10.218;2023-11-19T01:47:01;100535.56;;;9.25;100.00
80393;BME280;69719;45.544;10.218;2023-11-19T01:49:27;100532.59;;;9.34;100.00
80393;BME280;69719;45.544;10.218;2023-11-19T01:51:54;100528.44;;;9.06;100.00
80393;BME280;69719;45.544;10.218;2023-11-19T01:54:19;100528.03;;;9.09;100.00
80393;BME280;69719;45.544;10.218;2023-11-19T01:56:45;100515.59;;;9.25;100.00
80393;BME280;69719;45.544;10.218;2023-11-19T01:59:12;100520.28;;;9.15;100.00
80393;BME280;69719;45.544;10.218;2023-11-19T02:01:39;100525.44;;;9.09;100.00
80393;BME280;69719;45.544;10.218;2023-11-19T02:04:06;100521.44;;;9.06;100.00
80393;BME280;69719;45.544;10.218;2023-11-19T02:06:33;100517.44;;;9.04;100.00
80393;BME280;69719;45.544;10.218;2023-11-19T02:09:00;100526.75;;;9.19;100.00
80393;BME280;69719;45.544;10.218;2023-11-19T02:11:26;100511.03;;;9.00;100.00
80393;BME280;69719;45.544;10.218;2023-11-19T02:13:55;100515.81;;;9.03;100.00
80393;BME280;69719;45.544;10.218;2023-11-19T02:16:21;100513.78;;;8.98;100.00
80393;BME280;69719;45.544;10.218;2023-11-19T02:18:47;100495.81;;;8.97;100.00
80393;BME280;69719;45.544;10.218;2023-11-19T02:21:13;100496.66;;;9.04;100.00
80393;BME280;69719;45.544;10.218;2023-11-19T02:23:40;100492.13;;;9.12;100.00
80393;BME280;69719;45.544;10.218;2023-11-19T02:28:36;100489.34;;;8.86;100.00
80393;BME280;69719;45.544;10.218;2023-11-19T02:31:02;100489.16;;;8.88;100.00
80393;BME280;69719;45.544;10.218;2023-11-19T02:33:30;100475.97;;;8.83;100.00
80393;BME280;69719;45.544;10.218;2023-11-19T02:35:55;100474.59;;;8.87;100.00
80393;BME280;69719;45.544;10.218;2023-11-19T02:38:21;100478.06;;;8.73;100.00
80393;BME280;69719;45.544;10.218;2023-11-19T02:40:47;100471.19;;;8.86;100.00
80393;BME280;69719;45.544;10.218;2023-11-19T02:43:14;100470.78;;;8.83;100.00
80393;BME280;69719;45.544;10.218;2023-11-19T02:45:40;100470.88;;;8.75;100.00
80393;BME280;69719;45.544;10.218;2023-11-19T02:48:05;100463.69;;;8.70;100.00
80393;BME280;69719;45.544;10.218;2023-11-19T02:50:31;100467.59;;;8.60;100.00
80393;BME280;69719;45.544;10.218;2023-11-19T02:52:57;100464.00;;;8.61;100.00
80393;BME280;69719;45.544;10.218;2023-11-19T02:55:23;100455.91;;;8.70;100.00
80393;BME280;69719;45.544;10.218;2023-11-19T02:57:50;100460.50;;;8.68;100.00
80393;BME280;69719;45.544;10.218;2023-11-19T03:00:20;100457.94;;;8.53;100.00
80393;BME280;69719;45.544;10.218;2023-11-19T03:02:50;100462.84;;;8.42;100.00
80393;BME280;69719;45.544;10.218;2023-11-19T03:05:25;100458.34;;;8.50;100.00
80393;BME280;69719;45.544;10.218;2023-11-19T03:07:50;100450.41;;;8.59;100.00
80393;BME280;69719;45.544;10.218;2023-11-19T03:10:17;100453.38;;;8.55;100.00
80393;BME280;69719;45.544;10.218;2023-11-19T03:12:43;100458.63;;;8.62;100.00
80393;BME280;69719;45.544;10.218;2023-11-19T03:15:10;100462.53;;;8.51;100.00
80393;BME280;69719;45.544;10.218;2023-11-19T03:17:38;100456.16;;;8.54;100.00
80393;BME280;69719;45.544;10.218;2023-11-19T03:20:09;100451.22;;;8.59;100.00
80393;BME280;69719;45.544;10.218;2023-11-19T03:22:38;100454.38;;;8.54;100.00
80393;BME280;69719;45.544;10.218;2023-11-19T03:25:04;100451.78;;;8.54;100.00
80393;BME280;69719;45.544;10.218;2023-11-19T03:27:30;100451.31;;;8.44;100.00
80393;BME280;69719;45.544;10.218;2023-11-19T03:29:58;100455.34;;;8.53;100.00
80393;BME280;69719;45.544;10.218;2023-11-19T03:32:24;100445.72;;;8.47;100.00
80393;BME280;69719;45.544;10.218;2023-11-19T03:34:49;100451.81;;;8.33;100.00
80393;BME280;69719;45.544;10.218;2023-11-19T03:37:14;100452.25;;;8.22;100.00
80393;BME280;69719;45.544;10.218;2023-11-19T03:39:42;100450.56;;;8.29;100.00
80393;BME280;69719;45.544;10.218;2023-11-19T03:42:08;100451.94;;;8.25;100.00
80393;BME280;69719;45.544;10.218;2023-11-19T03:44:33;100448.66;;;8.23;100.00
80393;BME280;69719;45.544;10.218;2023-11-19T03:46:59;100447.44;;;8.19;100.00
80393;BME280;69719;45.544;10.218;2023-11-19T03:49:24;100443.63;;;8.15;100.00
80393;BME280;69719;45.544;10.218;2023-11-19T03:51:50;100440.63;;;8.33;100.00
80393;BME280;69719;45.544;10.218;2023-11-19T03:54:15;100437.31;;;8.03;100.00
80393;BME280;69719;45.544;10.218;2023-11-19T03:56:40;100433.78;;;8.25;100.00
80393;BME280;69719;45.544;10.218;2023-11-19T03:59:06;100431.88;;;8.19;100.00
80393;BME280;69719;45.544;10.218;2023-11-19T04:01:33;100435.22;;;8.13;100.00
80393;BME280;69719;45.544;10.218;2023-11-19T04:03:58;100428.84;;;8.30;100.00
80393;BME280;69719;45.544;10.218;2023-11-19T04:06:25;100433.50;;;8.20;100.00
80393;BME280;69719;45.544;10.218;2023-11-19T04:08:51;100422.75;;;8.02;100.00
80393;BME280;69719;45.544;10.218;2023-11-19T04:11:16;100428.44;;;8.12;100.00
80393;BME280;69719;45.544;10.218;2023-11-19T04:13:42;100432.75;;;8.05;100.00
80393;BME280;69719;45.544;10.218;2023-11-19T04:16:08;100437.44;;;7.95;100.00
80393;BME280;69719;45.544;10.218;2023-11-19T04:18:33;100428.81;;;8.09;100.00
80393;BME280;69719;45.544;10.218;2023-11-19T04:20:59;100435.53;;;8.04;100.00
80393;BME280;69719;45.544;10.218;2023-11-19T04:23:24;100435.69;;;8.02;100.00
80393;BME280;69719;45.544;10.218;2023-11-19T04:25:52;100418.94;;;7.98;100.00
80393;BME280;69719;45.544;10.218;2023-11-19T04:28:18;100421.91;;;7.95;100.00
80393;BME280;69719;45.544;10.218;2023-11-19T04:30:43;100423.53;;;7.82;100.00
80393;BME280;69719;45.544;10.218;2023-11-19T04:33:09;100409.84;;;7.88;100.00
80393;BME280;69719;45.544;10.218;2023-11-19T04:35:35;100410.34;;;7.98;100.00
80393;BME280;69719;45.544;10.218;2023-11-19T04:38:01;100412.16;;;7.97;100.00
80393;BME280;69719;45.544;10.218;2023-11-19T04:40:26;100407.13;;;7.96;100.00
80393;BME280;69719;45.544;10.218;2023-11-19T04:42:52;100393.50;;;7.87;100.00
80393;BME280;69719;45.544;10.218;2023-11-19T04:45:17;100389.13;;;7.88;100.00
80393;BME280;69719;45.544;10.218;2023-11-19T04:47:43;100389.25;;;7.79;100.00
80393;BME280;69719;45.544;10.218;2023-11-19T04:50:09;100393.75;;;7.71;100.00
80393;BME280;69719;45.544;10.218;2023-11-19T04:52:39;100395.38;;;7.93;100.00
80393;BME280;69719;45.544;10.218;2023-11-19T04:55:12;100397.03;;;7.79;100.00
80393;BME280;69719;45.544;10.218;2023-11-19T04:57:39;100390.06;;;7.80;100.00
80393;BME280;69719;45.544;10.218;2023-11-19T05:00:05;100398.31;;;7.90;100.00
80393;BME280;69719;45.544;10.218;2023-11-19T05:02:32;100398.69;;;7.87;100.00
80393;BME280;69719;45.544;10.218;2023-11-19T05:04:57;100402.25;;;7.65;100.00
80393;BME280;69719;45.544;10.218;2023-11-19T05:07:23;100386.41;;;7.74;100.00
80393;BME280;69719;45.544;10.218;2023-11-19T05:09:48;100395.91;;;7.53;100.00
80393;BME280;69719;45.544;10.218;2023-11-19T05:12:14;100388.22;;;7.74;100.00
80393;BME280;69719;45.544;10.218;2023-11-19T05:14:40;100378.56;;;7.68;100.00
80393;BME280;69719;45.544;10.218;2023-11-19T05:17:05;100374.03;;;7.55;100.00
80393;BME280;69719;45.544;10.218;2023-11-19T05:19:31;100367.44;;;7.53;100.00
80393;BME280;69719;45.544;10.218;2023-11-19T05:21:56;100365.53;;;7.61;100.00
80393;BME280;69719;45.544;10.218;2023-11-19T05:24:22;100362.66;;;7.71;100.00
80393;BME280;69719;45.544;10.218;2023-11-19T05:26:48;100361.97;;;7.62;100.00
80393;BME280;69719;45.544;10.218;2023-11-19T05:29:16;100370.09;;;7.59;100.00
80393;BME280;69719;45.544;10.218;2023-11-19T05:31:42;100370.03;;;7.53;100.00
80393;BME280;69719;45.544;10.218;2023-11-19T05:34:07;100380.91;;;7.63;100.00
80393;BME280;69719;45.544;10.218;2023-11-19T05:36:33;100365.59;;;7.47;100.00
80393;BME280;69719;45.544;10.218;2023-11-19T05:38:58;100370.41;;;7.50;100.00
80393;BME280;69719;45.544;10.218;2023-11-19T05:41:24;100364.84;;;7.53;100.00
80393;BME280;69719;45.544;10.218;2023-11-19T05:43:49;100362.31;;;7.74;100.00
80393;BME280;69719;45.544;10.218;2023-11-19T05:46:15;100366.19;;;7.49;100.00
80393;BME280;69719;45.544;10.218;2023-11-19T05:48:41;100357.41;;;7.64;100.00
80393;BME280;69719;45.544;10.218;2023-11-19T05:51:08;100359.53;;;7.75;100.00
80393;BME280;69719;45.544;10.218;2023-11-19T05:53:33;100354.69;;;7.51;100.00
80393;BME280;69719;45.544;10.218;2023-11-19T05:55:59;100359.28;;;7.35;100.00
80393;BME280;69719;45.544;10.218;2023-11-19T05:58:29;100344.44;;;7.43;100.00
80393;BME280;69719;45.544;10.218;2023-11-19T06:00:55;100340.09;;;7.65;100.00
80393;BME280;69719;45.544;10.218;2023-11-19T06:03:21;100339.72;;;7.68;100.00
80393;BME280;69719;45.544;10.218;2023-11-19T06:05:48;100333.63;;;7.75;100.00
80393;BME280;69719;45.544;10.218;2023-11-19T06:08:14;100336.84;;;7.77;100.00
80393;BME280;69719;45.544;10.218;2023-11-19T06:10:43;100341.00;;;7.57;100.00
80393;BME280;69719;45.544;10.218;2023-11-19T06:13:11;100344.84;;;7.26;100.00
80393;BME280;69719;45.544;10.218;2023-11-19T06:15:37;100344.56;;;7.21;100.00
80393;BME280;69719;45.544;10.218;2023-11-19T06:18:03;100332.78;;;7.33;100.00
80393;BME280;69719;45.544;10.218;2023-11-19T06:20:32;100335.56;;;7.31;100.00
80393;BME280;69719;45.544;10.218;2023-11-19T06:22:58;100331.06;;;7.40;100.00
80393;BME280;69719;45.544;10.218;2023-11-19T06:25:24;100325.75;;;7.27;100.00
80393;BME280;69719;45.544;10.218;2023-11-19T06:27:50;100331.31;;;7.45;100.00
80393;BME280;69719;45.544;10.218;2023-11-19T06:30:16;100325.38;;;7.30;100.00
80393;BME280;69719;45.544;10.218;2023-11-19T06:32:42;100332.41;;;7.36;100.00
80393;BME280;69719;45.544;10.218;2023-11-19T06:35:08;100330.69;;;7.43;100.00
80393;BME280;69719;45.544;10.218;2023-11-19T06:37:38;100329.19;;;7.34;100.00
80393;BME280;69719;45.544;10.218;2023-11-19T06:40:05;100339.00;;;7.38;100.00
80393;BME280;69719;45.544;10.218;2023-11-19T06:42:31;100333.47;;;7.41;100.00
80393;BME280;69719;45.544;10.218;2023-11-19T06:44:56;100330.53;;;7.30;100.00
80393;BME280;69719;45.544;10.218;2023-11-19T06:47:25;100346.38;;;7.20;100.00
80393;BME280;69719;45.544;10.218;2023-11-19T06:49:52;100340.28;;;7.28;100.00
80393;BME280;69719;45.544;10.218;2023-11-19T06:52:17;100339.75;;;7.32;100.00
80393;BME280;69719;45.544;10.218;2023-11-19T06:54:43;100347.06;;;7.29;100.00
80393;BME280;69719;45.544;10.218;2023-11-19T06:57:08;100348.22;;;7.26;100.00
80393;BME280;69719;45.544;10.218;2023-11-19T06:59:34;100349.28;;;7.32;100.00
80393;BME280;69719;45.544;10.218;2023-11-19T07:02:00;100339.81;;;7.39;100.00
80393;BME280;69719;45.544;10.218;2023-11-19T07:04:25;100343.13;;;7.33;100.00
80393;BME280;69719;45.544;10.218;2023-11-19T07:06:51;100344.50;;;7.29;100.00
80393;BME280;69719;45.544;10.218;2023-11-19T07:09:18;100352.94;;;7.37;100.00
80393;BME280;69719;45.544;10.218;2023-11-19T07:11:44;100349.75;;;7.35;100.00
80393;BME280;69719;45.544;10.218;2023-11-19T07:14:10;100346.78;;;7.38;100.00
80393;BME280;69719;45.544;10.218;2023-11-19T07:16:37;100354.00;;;7.43;100.00
80393;BME280;69719;45.544;10.218;2023-11-19T07:19:04;100350.00;;;7.61;100.00
80393;BME280;69719;45.544;10.218;2023-11-19T07:21:30;100357.78;;;7.61;100.00
80393;BME280;69719;45.544;10.218;2023-11-19T07:23:56;100359.72;;;7.38;100.00
80393;BME280;69719;45.544;10.218;2023-11-19T07:26:23;100357.22;;;7.66;100.00
80393;BME280;69719;45.544;10.218;2023-11-19T07:28:51;100367.44;;;7.53;100.00
80393;BME280;69719;45.544;10.218;2023-11-19T07:31:17;100368.13;;;7.61;100.00
80393;BME280;69719;45.544;10.218;2023-11-19T07:33:47;100366.97;;;7.64;100.00
80393;BME280;69719;45.544;10.218;2023-11-19T07:36:13;100364.38;;;7.85;100.00
80393;BME280;69719;45.544;10.218;2023-11-19T07:38:39;100362.25;;;7.67;100.00
80393;BME280;69719;45.544;10.218;2023-11-19T07:41:05;100370.09;;;7.59;100.00
80393;BME280;69719;45.544;10.218;2023-11-19T07:43:32;100353.84;;;7.65;100.00
80393;BME280;69719;45.544;10.218;2023-11-19T07:45:57;100357.84;;;7.68;100.00
80393;BME280;69719;45.544;10.218;2023-11-19T07:48:25;100367.72;;;7.79;100.00
80393;BME280;69719;45.544;10.218;2023-11-19T07:50:52;100376.31;;;8.01;100.00
80393;BME280;69719;45.544;10.218;2023-11-19T07:53:18;100367.97;;;8.05;100.00
80393;BME280;69719;45.544;10.218;2023-11-19T07:55:44;100369.00;;;8.11;100.00
80393;BME280;69719;45.544;10.218;2023-11-19T07:58:12;100369.06;;;8.17;100.00
80393;BME280;69719;45.544;10.218;2023-11-19T08:00:38;100374.44;;;8.37;100.00
80393;BME280;69719;45.544;10.218;2023-11-19T08:03:04;100355.50;;;8.36;100.00
80393;BME280;69719;45.544;10.218;2023-11-19T08:05:30;100350.31;;;8.36;100.00
80393;BME280;69719;45.544;10.218;2023-11-19T08:07:56;100357.88;;;8.31;100.00
80393;BME280;69719;45.544;10.218;2023-11-19T08:10:22;100351.00;;;8.51;100.00
80393;BME280;69719;45.544;10.218;2023-11-19T08:12:48;100362.09;;;8.67;100.00
80393;BME280;69719;45.544;10.218;2023-11-19T08:15:13;100358.69;;;8.94;100.00
80393;BME280;69719;45.544;10.218;2023-11-19T08:17:39;100367.19;;;8.88;100.00
80393;BME280;69719;45.544;10.218;2023-11-19T08:20:05;100367.91;;;9.09;100.00
80393;BME280;69719;45.544;10.218;2023-11-19T08:22:36;100366.84;;;9.38;100.00
80393;BME280;69719;45.544;10.218;2023-11-19T08:25:03;100376.28;;;9.59;100.00
80393;BME280;69719;45.544;10.218;2023-11-19T08:27:29;100377.13;;;9.66;100.00
80393;BME280;69719;45.544;10.218;2023-11-19T08:29:55;100379.19;;;9.90;100.00
80393;BME280;69719;45.544;10.218;2023-11-19T08:32:24;100383.59;;;10.02;100.00
80393;BME280;69719;45.544;10.218;2023-11-19T08:34:50;100382.84;;;10.22;100.00
80393;BME280;69719;45.544;10.218;2023-11-19T08:37:15;100374.03;;;10.29;99.51
80393;BME280;69719;45.544;10.218;2023-11-19T08:39:43;100363.03;;;10.34;98.46
80393;BME280;69719;45.544;10.218;2023-11-19T08:42:09;100372.81;;;10.45;96.57
80393;BME280;69719;45.544;10.218;2023-11-19T08:44:34;100367.63;;;10.58;96.20
80393;BME280;69719;45.544;10.218;2023-11-19T08:47:00;100378.41;;;10.68;95.57
80393;BME280;69719;45.544;10.218;2023-11-19T08:49:25;100375.59;;;10.63;95.29
80393;BME280;69719;45.544;10.218;2023-11-19T08:51:51;100381.59;;;10.76;94.32
80393;BME280;69719;45.544;10.218;2023-11-19T08:54:16;100381.34;;;10.91;92.09
80393;BME280;69719;45.544;10.218;2023-11-19T08:56:42;100388.59;;;10.76;94.44
80393;BME280;69719;45.544;10.218;2023-11-19T08:59:07;100378.97;;;10.90;93.14
80393;BME280;69719;45.544;10.218;2023-11-19T09:01:34;100378.97;;;10.83;95.17
80393;BME280;69719;45.544;10.218;2023-11-19T09:03:59;100372.53;;;10.99;92.42
80393;BME280;69719;45.544;10.218;2023-11-19T09:06:25;100383.09;;;11.10;90.33
80393;BME280;69719;45.544;10.218;2023-11-19T09:08:50;100373.50;;;11.11;92.66
80393;BME280;69719;45.544;10.218;2023-11-19T09:11:16;100374.31;;;11.11;92.29
80393;BME280;69719;45.544;10.218;2023-11-19T09:13:42;100379.28;;;11.13;94.34
80393;BME280;69719;45.544;10.218;2023-11-19T09:16:07;100386.72;;;11.16;93.28
80393;BME280;69719;45.544;10.218;2023-11-19T09:18:34;100387.47;;;11.23;92.66
80393;BME280;69719;45.544;10.218;2023-11-19T09:21:00;100381.63;;;11.34;95.50
80393;BME280;69719;45.544;10.218;2023-11-19T09:23:26;100384.63;;;11.37;95.49
80393;BME280;69719;45.544;10.218;2023-11-19T09:25:53;100388.00;;;11.38;95.94
80393;BME280;69719;45.544;10.218;2023-11-19T09:28:18;100384.38;;;11.45;97.36
80393;BME280;69719;45.544;10.218;2023-11-19T09:30:44;100383.28;;;11.59;97.47
80393;BME280;69719;45.544;10.218;2023-11-19T09:33:10;100378.69;;;11.61;97.79
80393;BME280;69719;45.544;10.218;2023-11-19T09:35:35;100379.81;;;11.79;97.02
80393;BME280;69719;45.544;10.218;2023-11-19T09:38:01;100373.34;;;11.88;95.63
80393;BME280;69719;45.544;10.218;2023-11-19T09:40:27;100371.69;;;11.93;96.33
80393;BME280;69719;45.544;10.218;2023-11-19T09:42:54;100368.44;;;11.98;95.39
80393;BME280;69719;45.544;10.218;2023-11-19T09:45:21;100362.03;;;12.00;94.44
80393;BME280;69719;45.544;10.218;2023-11-19T09:47:47;100369.53;;;12.15;93.73
80393;BME280;69719;45.544;10.218;2023-11-19T09:50:17;100365.66;;;12.24;94.34
80393;BME280;69719;45.544;10.218;2023-11-19T09:52:44;100362.06;;;12.25;92.44
80393;BME280;69719;45.544;10.218;2023-11-19T09:55:10;100358.34;;;12.32;92.89
80393;BME280;69719;45.544;10.218;2023-11-19T09:57:38;100349.09;;;12.36;93.27
80393;BME280;69719;45.544;10.218;2023-11-19T10:00:04;100351.06;;;12.41;92.08
80393;BME280;69719;45.544;10.218;2023-11-19T10:02:34;100349.78;;;12.50;93.47
80393;BME280;69719;45.544;10.218;2023-11-19T10:05:06;100346.66;;;12.42;93.06
80393;BME280;69719;45.544;10.218;2023-11-19T10:07:32;100354.13;;;12.56;93.65
80393;BME280;69719;45.544;10.218;2023-11-19T10:10:05;100362.06;;;12.68;91.54
80393;BME280;69719;45.544;10.218;2023-11-19T10:12:30;100354.16;;;12.74;91.65
80393;BME280;69719;45.544;10.218;2023-11-19T10:14:57;100351.09;;;12.77;90.71
80393;BME280;69719;45.544;10.218;2023-11-19T10:17:33;100344.59;;;12.86;91.77
80393;BME280;69719;45.544;10.218;2023-11-19T10:19:58;100340.88;;;12.94;91.03
80393;BME280;69719;45.544;10.218;2023-11-19T10:22:24;100329.84;;;12.92;91.87
80393;BME280;69719;45.544;10.218;2023-11-19T10:24:52;100325.66;;;12.91;91.65
80393;BME280;69719;45.544;10.218;2023-11-19T10:27:17;100319.41;;;12.92;92.49
80393;BME280;69719;45.544;10.218;2023-11-19T10:29:47;100313.59;;;12.90;92.30
80393;BME280;69719;45.544;10.218;2023-11-19T10:32:13;100329.28;;;12.90;92.10
80393;BME280;69719;45.544;10.218;2023-11-19T10:34:40;100323.84;;;12.91;91.56
80393;BME280;69719;45.544;10.218;2023-11-19T10:37:07;100322.47;;;12.89;91.51
80393;BME280;69719;45.544;10.218;2023-11-19T10:39:52;100320.44;;;12.91;88.07
80393;BME280;69719;45.544;10.218;2023-11-19T10:42:19;100315.28;;;12.84;89.99
80393;BME280;69719;45.544;10.218;2023-11-19T10:44:45;100314.84;;;12.87;89.47
80393;BME280;69719;45.544;10.218;2023-11-19T10:47:12;100311.22;;;12.88;87.95
80393;BME280;69719;45.544;10.218;2023-11-19T10:49:39;100297.28;;;12.94;85.26
80393;BME280;69719;45.544;10.218;2023-11-19T10:52:08;100298.00;;;12.83;86.37
80393;BME280;69719;45.544;10.218;2023-11-19T10:54:34;100306.88;;;12.82;86.37
80393;BME280;69719;45.544;10.218;2023-11-19T10:57:01;100314.56;;;12.77;85.97
80393;BME280;69719;45.544;10.218;2023-11-19T10:59:30;100317.75;;;12.79;85.39
80393;BME280;69719;45.544;10.218;2023-11-19T11:01:57;100309.84;;;12.86;86.05
80393;BME280;69719;45.544;10.218;2023-11-19T11:04:24;100313.19;;;12.93;83.15
80393;BME280;69719;45.544;10.218;2023-11-19T11:06:58;100301.94;;;12.92;82.97
80393;BME280;69719;45.544;10.218;2023-11-19T11:09:26;100293.50;;;12.90;84.41
80393;BME280;69719;45.544;10.218;2023-11-19T11:11:54;100292.44;;;12.80;85.55
80393;BME280;69719;45.544;10.218;2023-11-19T11:14:21;100284.22;;;12.94;84.23
80393;BME280;69719;45.544;10.218;2023-11-19T11:16:48;100287.41;;;12.96;84.10
80393;BME280;69719;45.544;10.218;2023-11-19T11:19:16;100287.41;;;12.96;85.33
80393;BME280;69719;45.544;10.218;2023-11-19T11:21:45;100277.69;;;13.03;84.89
80393;BME280;69719;45.544;10.218;2023-11-19T11:24:40;100267.41;;;12.90;87.89
80393;BME280;69719;45.544;10.218;2023-11-19T11:38:08;100267.91;;;13.17;84.81
80393;BME280;69719;45.544;10.218;2023-11-19T11:40:34;100268.75;;;13.11;86.77
80393;BME280;69719;45.544;10.218;2023-11-19T11:43:02;100278.22;;;13.12;86.11
80393;BME280;69719;45.544;10.218;2023-11-19T11:45:40;100267.09;;;12.98;84.19
80393;BME280;69719;45.544;10.218;2023-11-19T11:48:11;100263.69;;;12.98;84.28
80393;BME280;69719;45.544;10.218;2023-11-19T11:50:57;100253.47;;;13.14;85.38
80393;BME280;69719;45.544;10.218;2023-11-19T11:53:24;100256.38;;;13.06;84.28
80393;BME280;69719;45.544;10.218;2023-11-19T11:55:54;100255.03;;;13.15;85.87
80393;BME280;69719;45.544;10.218;2023-11-19T11:58:30;100248.81;;;13.17;85.40
80393;BME280;69719;45.544;10.218;2023-11-19T12:01:00;100243.44;;;13.11;85.07
80393;BME280;69719;45.544;10.218;2023-11-19T12:03:28;100238.72;;;13.02;84.65
80393;BME280;69719;45.544;10.218;2023-11-19T12:05:54;100233.88;;;13.05;85.53
80393;BME280;69719;45.544;10.218;2023-11-19T12:08:25;100235.69;;;13.05;84.80
80393;BME280;69719;45.544;10.218;2023-11-19T12:10:52;100237.50;;;13.04;86.42
80393;BME280;69719;45.544;10.218;2023-11-19T12:13:19;100228.63;;;13.24;85.72
80393;BME280;69719;45.544;10.218;2023-11-19T12:18:31;100237.13;;;13.31;86.51
80393;BME280;69719;45.544;10.218;2023-11-19T12:20:58;100229.28;;;13.31;88.10
80393;BME280;69719;45.544;10.218;2023-11-19T12:23:26;100229.19;;;13.26;90.17
80393;BME280;69719;45.544;10.218;2023-11-19T12:25:52;100220.41;;;13.20;92.96
80393;BME280;69719;45.544;10.218;2023-11-19T12:28:18;100217.03;;;13.31;93.57
80393;BME280;69719;45.544;10.218;2023-11-19T12:30:44;100220.63;;;13.19;94.64
80393;BME280;69719;45.544;10.218;2023-11-19T12:33:11;100217.22;;;13.18;94.89
80393;BME280;69719;45.544;10.218;2023-11-19T12:35:40;100215.44;;;13.30;94.49
80393;BME280;69719;45.544;10.218;2023-11-19T12:38:06;100203.31;;;13.36;94.75
80393;BME280;69719;45.544;10.218;2023-11-19T12:40:32;100190.81;;;13.38;94.79
80393;BME280;69719;45.544;10.218;2023-11-19T12:42:57;100183.66;;;13.45;95.72
80393;BME280;69719;45.544;10.218;2023-11-19T12:45:24;100185.81;;;13.36;95.98
80393;BME280;69719;45.544;10.218;2023-11-19T12:47:50;100183.00;;;13.49;95.08
80393;BME280;69719;45.544;10.218;2023-11-19T12:50:18;100168.88;;;13.50;96.14
80393;BME280;69719;45.544;10.218;2023-11-19T12:52:55;100170.50;;;13.51;96.55
80393;BME280;69719;45.544;10.218;2023-11-19T12:55:28;100158.09;;;13.58;97.02